KALI/ALI METAR and TAF weather

Enter ICAO airport designator
Station Type Date Time Source
KALI METAR 2018/04/20 08:53 UTC NOAA

KALI 200853Z AUTO 01005KT 10SM CLR 15/10 A3012 RMK AO2 SLP198 T01500100 56015


Station Type Date Time Source
KALI Decoded METAR 2018/04/20 08:53 UTC NOAA

ALICE INTERNATIONAL AIRPORT, TX, United States (KALI) 27-44N 098-01W 53M
Apr 20, 2018 - 04:53 AM EDT / 2018.04.20 0853 UTC
Wind: from the N (010 degrees) at 6 MPH (5 KT):0
Visibility: 10 mile(s):0
Sky conditions: clear
Temperature: 59.0 F (15.0 C)
Dew Point: 50.0 F (10.0 C)
Relative Humidity: 72%
Pressure (altimeter): 30.12 in. Hg (1019 hPa)
Pressure tendency: 0.04 inches (1.5 hPa) lower than three hours ago
ob: KALI 200853Z AUTO 01005KT 10SM CLR 15/10 A3012 RMK AO2 SLP198 T01500100 56015
cycle: 9

Station Type Date Time Source
KALI TAF 2018/04/20 06:33 UTC NOAA

TAF KALI 200530Z 2006/2106 13004KT P6SM BKN050
FM201700 13018G24KT P6SM SCT035
FM210100 13011KT P6SM SCT022


Example: see airport list